sensor_id;sensor_type;location;lat;lon;timestamp;pressure;altitude;pressure_sealevel;temperature;humidity
11971;BME280;6045;42.682;23.294;2023-02-14T00:02:21;96037.09;;;3.19;68.79
11971;BME280;6045;42.682;23.294;2023-02-14T00:04:47;96043.03;;;3.21;68.22
11971;BME280;6045;42.682;23.294;2023-02-14T00:07:15;96029.44;;;3.16;68.73
11971;BME280;6045;42.682;23.294;2023-02-14T00:09:42;96038.50;;;3.13;69.05
11971;BME280;6045;42.682;23.294;2023-02-14T00:12:09;96032.53;;;3.11;68.85
11971;BME280;6045;42.682;23.294;2023-02-14T00:14:36;96040.47;;;3.11;68.79
11971;BME280;6045;42.682;23.294;2023-02-14T00:17:20;96044.25;;;3.09;69.12
11971;BME280;6045;42.682;23.294;2023-02-14T00:19:46;96040.91;;;3.07;69.31
11971;BME280;6045;42.682;23.294;2023-02-14T00:22:13;96041.59;;;3.09;69.21
11971;BME280;6045;42.682;23.294;2023-02-14T00:24:44;96038.50;;;3.13;69.22
11971;BME280;6045;42.682;23.294;2023-02-14T00:27:12;96049.91;;;3.14;69.56
11971;BME280;6045;42.682;23.294;2023-02-14T00:29:39;96044.50;;;3.15;69.36
11971;BME280;6045;42.682;23.294;2023-02-14T00:32:05;96049.16;;;3.21;69.42
11971;BME280;6045;42.682;23.294;2023-02-14T00:34:32;96041.41;;;3.20;69.27
11971;BME280;6045;42.682;23.294;2023-02-14T00:37:01;96035.81;;;3.23;69.67
11971;BME280;6045;42.682;23.294;2023-02-14T00:39:27;96039.16;;;3.25;69.56
11971;BME280;6045;42.682;23.294;2023-02-14T00:41:55;96036.34;;;3.26;69.73
11971;BME280;6045;42.682;23.294;2023-02-14T00:44:22;96034.53;;;3.27;69.71
11971;BME280;6045;42.682;23.294;2023-02-14T00:46:49;96036.41;;;3.34;69.58
11971;BME280;6045;42.682;23.294;2023-02-14T00:49:16;96035.91;;;3.31;69.19
11971;BME280;6045;42.682;23.294;2023-02-14T00:51:43;96036.41;;;3.34;69.35
11971;BME280;6045;42.682;23.294;2023-02-14T00:54:10;96026.00;;;3.33;69.14
11971;BME280;6045;42.682;23.294;2023-02-14T00:56:36;96025.31;;;3.31;69.71
11971;BME280;6045;42.682;23.294;2023-02-14T00:59:05;96019.75;;;3.34;69.85
11971;BME280;6045;42.682;23.294;2023-02-14T01:01:31;96013.84;;;3.40;69.57
11971;BME280;6045;42.682;23.294;2023-02-14T01:03:58;96022.38;;;3.34;69.65
11971;BME280;6045;42.682;23.294;2023-02-14T01:06:25;96013.84;;;3.40;69.28
11971;BME280;6045;42.682;23.294;2023-02-14T01:08:52;96004.41;;;3.37;69.61
11971;BME280;6045;42.682;23.294;2023-02-14T01:11:20;96018.16;;;3.41;69.57
11971;BME280;6045;42.682;23.294;2023-02-14T01:13:48;96013.84;;;3.40;69.08
11971;BME280;6045;42.682;23.294;2023-02-14T01:16:19;96007.22;;;3.36;69.45
11971;BME280;6045;42.682;23.294;2023-02-14T01:18:46;96007.59;;;3.41;69.68
11971;BME280;6045;42.682;23.294;2023-02-14T01:21:16;96008.94;;;3.45;69.09
11971;BME280;6045;42.682;23.294;2023-02-14T01:23:44;96005.53;;;3.35;69.02
11971;BME280;6045;42.682;23.294;2023-02-14T01:26:12;96006.22;;;3.37;69.15
11971;BME280;6045;42.682;23.294;2023-02-14T01:28:39;96000.72;;;3.30;69.17
11971;BME280;6045;42.682;23.294;2023-02-14T01:31:08;95997.47;;;3.36;69.46
11971;BME280;6045;42.682;23.294;2023-02-14T01:33:37;95996.47;;;3.37;69.33
11971;BME280;6045;42.682;23.294;2023-02-14T01:36:05;95994.84;;;3.36;69.28
11971;BME280;6045;42.682;23.294;2023-02-14T01:38:31;95993.31;;;3.34;69.25
11971;BME280;6045;42.682;23.294;2023-02-14T01:40:58;95988.72;;;3.36;69.04
11971;BME280;6045;42.682;23.294;2023-02-14T01:43:25;95965.41;;;3.31;69.09
11971;BME280;6045;42.682;23.294;2023-02-14T01:45:52;95967.38;;;3.29;69.09
11971;BME280;6045;42.682;23.294;2023-02-14T01:48:20;95966.25;;;3.32;69.20
11971;BME280;6045;42.682;23.294;2023-02-14T01:50:50;95962.22;;;3.28;68.94
11971;BME280;6045;42.682;23.294;2023-02-14T01:53:21;95960.41;;;3.28;69.25
11971;BME280;6045;42.682;23.294;2023-02-14T01:55:53;95966.53;;;3.29;69.38
11971;BME280;6045;42.682;23.294;2023-02-14T01:58:24;95965.91;;;3.35;69.22
11971;BME280;6045;42.682;23.294;2023-02-14T02:00:52;95960.13;;;3.31;68.89
11971;BME280;6045;42.682;23.294;2023-02-14T02:03:27;95953.03;;;3.32;69.10
11971;BME280;6045;42.682;23.294;2023-02-14T02:05:58;95963.88;;;3.29;69.16
11971;BME280;6045;42.682;23.294;2023-02-14T02:08:28;95961.38;;;3.27;69.04
11971;BME280;6045;42.682;23.294;2023-02-14T02:10:55;95964.56;;;3.31;69.06
11971;BME280;6045;42.682;23.294;2023-02-14T02:13:21;95961.63;;;3.34;69.02
11971;BME280;6045;42.682;23.294;2023-02-14T02:15:55;95957.00;;;3.36;68.68
11971;BME280;6045;42.682;23.294;2023-02-14T02:18:32;95960.78;;;3.33;68.86
11971;BME280;6045;42.682;23.294;2023-02-14T02:24:19;95960.78;;;3.33;68.93
11971;BME280;6045;42.682;23.294;2023-02-14T02:27:02;95955.97;;;3.29;68.96
11971;BME280;6045;42.682;23.294;2023-02-14T02:32:45;95939.19;;;3.20;69.00
11971;BME280;6045;42.682;23.294;2023-02-14T02:35:33;95933.41;;;3.17;69.43
11971;BME280;6045;42.682;23.294;2023-02-14T02:38:13;95936.72;;;3.19;69.42
11971;BME280;6045;42.682;23.294;2023-02-14T02:40:48;95917.72;;;3.15;69.10
11971;BME280;6045;42.682;23.294;2023-02-14T02:43:29;95922.16;;;3.15;69.44
11971;BME280;6045;42.682;23.294;2023-02-14T02:46:03;95915.22;;;3.14;69.08
11971;BME280;6045;42.682;23.294;2023-02-14T02:48:55;95921.94;;;3.08;69.43
11971;BME280;6045;42.682;23.294;2023-02-14T02:51:36;95924.72;;;3.07;69.39
11971;BME280;6045;42.682;23.294;2023-02-14T02:54:28;95912.19;;;3.09;69.25
11971;BME280;6045;42.682;23.294;2023-02-14T02:57:00;95929.72;;;3.10;69.27
11971;BME280;6045;42.682;23.294;2023-02-14T02:59:31;95923.88;;;3.06;69.33
11971;BME280;6045;42.682;23.294;2023-02-14T03:02:06;95926.19;;;3.01;69.93
11971;BME280;6045;42.682;23.294;2023-02-14T03:04:38;95924.44;;;3.10;69.34
11971;BME280;6045;42.682;23.294;2023-02-14T03:07:29;95927.75;;;3.12;69.49
11971;BME280;6045;42.682;23.294;2023-02-14T03:10:07;95938.09;;;3.05;69.48
11971;BME280;6045;42.682;23.294;2023-02-14T03:12:48;95931.72;;;3.16;69.22
11971;BME280;6045;42.682;23.294;2023-02-14T03:15:23;95929.41;;;3.13;69.50
11971;BME280;6045;42.682;23.294;2023-02-14T03:18:03;95919.66;;;3.13;69.82
11971;BME280;6045;42.682;23.294;2023-02-14T03:20:53;95917.84;;;3.14;69.65
11971;BME280;6045;42.682;23.294;2023-02-14T03:23:24;95907.84;;;3.17;69.69
11971;BME280;6045;42.682;23.294;2023-02-14T03:26:02;95900.19;;;3.14;69.24
11971;BME280;6045;42.682;23.294;2023-02-14T03:28:36;95894.25;;;3.12;69.43
11971;BME280;6045;42.682;23.294;2023-02-14T03:31:11;95892.44;;;3.13;69.20
11971;BME280;6045;42.682;23.294;2023-02-14T03:33:49;95882.19;;;3.10;69.46
11971;BME280;6045;42.682;23.294;2023-02-14T03:36:21;95892.91;;;3.08;69.53
11971;BME280;6045;42.682;23.294;2023-02-14T03:38:54;95892.19;;;3.06;69.48
11971;BME280;6045;42.682;23.294;2023-02-14T03:41:26;95895.31;;;3.02;69.37
11971;BME280;6045;42.682;23.294;2023-02-14T03:43:57;95909.34;;;3.02;69.45
11971;BME280;6045;42.682;23.294;2023-02-14T03:46:28;95901.28;;;3.04;69.44
11971;BME280;6045;42.682;23.294;2023-02-14T03:48:58;95894.16;;;3.04;69.17
11971;BME280;6045;42.682;23.294;2023-02-14T03:51:29;95903.22;;;3.02;69.16
11971;BME280;6045;42.682;23.294;2023-02-14T03:54:01;95891.03;;;3.01;69.02
11971;BME280;6045;42.682;23.294;2023-02-14T03:56:32;95874.63;;;2.97;69.13
11971;BME280;6045;42.682;23.294;2023-02-14T03:59:04;95874.97;;;2.94;69.29
11971;BME280;6045;42.682;23.294;2023-02-14T04:01:34;95879.31;;;2.86;69.51
11971;BME280;6045;42.682;23.294;2023-02-14T04:04:03;95884.78;;;2.84;69.99
11971;BME280;6045;42.682;23.294;2023-02-14T04:06:31;95869.75;;;2.85;69.95
11971;BME280;6045;42.682;23.294;2023-02-14T04:08:57;95865.25;;;2.77;70.04
11971;BME280;6045;42.682;23.294;2023-02-14T04:11:26;95882.97;;;2.85;70.08
11971;BME280;6045;42.682;23.294;2023-02-14T04:13:53;95871.34;;;2.78;70.12
11971;BME280;6045;42.682;23.294;2023-02-14T04:16:20;95868.56;;;2.79;70.36
11971;BME280;6045;42.682;23.294;2023-02-14T04:18:47;95867.63;;;2.88;69.79
11971;BME280;6045;42.682;23.294;2023-02-14T04:21:30;95875.09;;;2.93;69.78
11971;BME280;6045;42.682;23.294;2023-02-14T04:23:57;95868.22;;;3.00;69.58
11971;BME280;6045;42.682;23.294;2023-02-14T04:26:25;95871.19;;;2.97;69.32
11971;BME280;6045;42.682;23.294;2023-02-14T04:28:52;95881.75;;;2.97;69.22
11971;BME280;6045;42.682;23.294;2023-02-14T04:31:19;95878.13;;;2.98;69.30
11971;BME280;6045;42.682;23.294;2023-02-14T04:33:45;95868.69;;;2.95;68.65
11971;BME280;6045;42.682;23.294;2023-02-14T04:36:12;95871.19;;;2.97;68.83
11971;BME280;6045;42.682;23.294;2023-02-14T04:38:39;95862.91;;;2.92;68.82
11971;BME280;6045;42.682;23.294;2023-02-14T04:41:06;95868.97;;;2.92;69.10
11971;BME280;6045;42.682;23.294;2023-02-14T04:43:34;95872.31;;;2.94;68.90
11971;BME280;6045;42.682;23.294;2023-02-14T04:46:01;95857.63;;;2.92;68.63
11971;BME280;6045;42.682;23.294;2023-02-14T04:48:27;95858.38;;;2.84;68.75
11971;BME280;6045;42.682;23.294;2023-02-14T04:50:54;95842.53;;;2.84;68.72
11971;BME280;6045;42.682;23.294;2023-02-14T04:53:21;95840.19;;;2.81;69.32
11971;BME280;6045;42.682;23.294;2023-02-14T04:55:48;95839.34;;;2.81;68.88
11971;BME280;6045;42.682;23.294;2023-02-14T04:58:15;95852.25;;;2.84;69.18
11971;BME280;6045;42.682;23.294;2023-02-14T05:00:43;95831.38;;;2.72;69.26
11971;BME280;6045;42.682;23.294;2023-02-14T05:03:10;95848.34;;;2.70;69.28
11971;BME280;6045;42.682;23.294;2023-02-14T05:05:37;95856.28;;;2.70;69.31
11971;BME280;6045;42.682;23.294;2023-02-14T05:08:04;95854.38;;;2.80;68.90
11971;BME280;6045;42.682;23.294;2023-02-14T05:10:30;95849.91;;;2.81;68.98
11971;BME280;6045;42.682;23.294;2023-02-14T05:12:57;95860.19;;;2.84;68.98
11971;BME280;6045;42.682;23.294;2023-02-14T05:15:24;95851.59;;;2.82;68.83
11971;BME280;6045;42.682;23.294;2023-02-14T05:17:52;95846.31;;;2.82;68.71
11971;BME280;6045;42.682;23.294;2023-02-14T05:20:19;95849.63;;;2.84;68.63
11971;BME280;6045;42.682;23.294;2023-02-14T05:22:45;95847.44;;;2.79;68.69
11971;BME280;6045;42.682;23.294;2023-02-14T05:25:12;95849.16;;;3.57;80.12
11971;BME280;6045;42.682;23.294;2023-02-14T05:27:39;95846.50;;;4.33;81.83
11971;BME280;6045;42.682;23.294;2023-02-14T05:30:07;95848.53;;;4.79;78.75
11971;BME280;6045;42.682;23.294;2023-02-14T05:32:34;95845.72;;;5.53;70.11
11971;BME280;6045;42.682;23.294;2023-02-14T05:35:02;95836.63;;;5.23;61.56
11971;BME280;6045;42.682;23.294;2023-02-14T05:37:29;95841.63;;;4.78;62.25
11971;BME280;6045;42.682;23.294;2023-02-14T05:39:55;95845.13;;;4.29;63.57
11971;BME280;6045;42.682;23.294;2023-02-14T05:42:22;95838.78;;;4.05;65.25
11971;BME280;6045;42.682;23.294;2023-02-14T05:44:49;95838.66;;;4.15;67.73
11971;BME280;6045;42.682;23.294;2023-02-14T05:47:16;95837.50;;;4.18;65.12
11971;BME280;6045;42.682;23.294;2023-02-14T05:49:42;95834.00;;;4.09;64.65
11971;BME280;6045;42.682;23.294;2023-02-14T05:52:10;95830.75;;;4.31;64.43
11971;BME280;6045;42.682;23.294;2023-02-14T05:54:37;95836.66;;;4.91;63.38
11971;BME280;6045;42.682;23.294;2023-02-14T05:57:04;95838.91;;;5.50;61.30
11971;BME280;6045;42.682;23.294;2023-02-14T05:59:30;95837.53;;;5.71;59.41
11971;BME280;6045;42.682;23.294;2023-02-14T06:01:57;95839.22;;;5.64;59.22
11971;BME280;6045;42.682;23.294;2023-02-14T06:04:24;95830.69;;;5.13;60.60
11971;BME280;6045;42.682;23.294;2023-02-14T06:06:51;95831.31;;;4.59;62.20
11971;BME280;6045;42.682;23.294;2023-02-14T06:09:19;95836.22;;;4.30;63.56
11971;BME280;6045;42.682;23.294;2023-02-14T06:11:45;95837.97;;;4.05;64.55
11971;BME280;6045;42.682;23.294;2023-02-14T06:14:12;95844.41;;;4.02;65.20
11971;BME280;6045;42.682;23.294;2023-02-14T06:16:39;95855.78;;;4.03;65.59
11971;BME280;6045;42.682;23.294;2023-02-14T06:19:06;95852.00;;;3.97;65.17
11971;BME280;6045;42.682;23.294;2023-02-14T06:21:33;95839.44;;;3.99;65.59
11971;BME280;6045;42.682;23.294;2023-02-14T06:23:59;95845.00;;;3.88;65.66
11971;BME280;6045;42.682;23.294;2023-02-14T06:26:27;95851.94;;;3.89;67.41
11971;BME280;6045;42.682;23.294;2023-02-14T06:28:55;95854.94;;;3.94;67.38
11971;BME280;6045;42.682;23.294;2023-02-14T06:31:23;95849.84;;;4.01;66.38
11971;BME280;6045;42.682;23.294;2023-02-14T06:33:51;95850.97;;;3.98;66.00
11971;BME280;6045;42.682;23.294;2023-02-14T06:36:18;95850.50;;;3.95;66.39
11971;BME280;6045;42.682;23.294;2023-02-14T06:38:44;95845.72;;;4.64;84.70
11971;BME280;6045;42.682;23.294;2023-02-14T06:41:12;95845.03;;;4.46;67.96
11971;BME280;6045;42.682;23.294;2023-02-14T06:43:43;95851.13;;;4.39;65.58
11971;BME280;6045;42.682;23.294;2023-02-14T06:46:10;95853.75;;;4.31;66.58
11971;BME280;6045;42.682;23.294;2023-02-14T06:48:37;95843.31;;;4.21;65.76
11971;BME280;6045;42.682;23.294;2023-02-14T06:51:03;95833.19;;;4.08;66.15
11971;BME280;6045;42.682;23.294;2023-02-14T06:53:30;95839.97;;;4.11;66.86
11971;BME280;6045;42.682;23.294;2023-02-14T06:55:57;95833.84;;;4.10;66.50
11971;BME280;6045;42.682;23.294;2023-02-14T06:58:24;95837.38;;;4.19;65.86
11971;BME280;6045;42.682;23.294;2023-02-14T07:00:54;95826.97;;;4.26;66.04
11971;BME280;6045;42.682;23.294;2023-02-14T07:03:20;95833.09;;;4.34;65.93
11971;BME280;6045;42.682;23.294;2023-02-14T07:05:47;95832.09;;;4.35;66.10
11971;BME280;6045;42.682;23.294;2023-02-14T07:08:14;95828.94;;;4.24;66.21
11971;BME280;6045;42.682;23.294;2023-02-14T07:10:41;95818.84;;;4.19;66.70
11971;BME280;6045;42.682;23.294;2023-02-14T07:13:07;95818.00;;;4.19;66.92
11971;BME280;6045;42.682;23.294;2023-02-14T07:15:34;95817.16;;;4.18;67.13
11971;BME280;6045;42.682;23.294;2023-02-14T07:18:04;95827.41;;;4.05;68.00
11971;BME280;6045;42.682;23.294;2023-02-14T07:20:32;95824.56;;;4.06;68.30
11971;BME280;6045;42.682;23.294;2023-02-14T07:22:59;95830.69;;;4.07;69.12
11971;BME280;6045;42.682;23.294;2023-02-14T07:25:26;95822.78;;;4.07;68.89
11971;BME280;6045;42.682;23.294;2023-02-14T07:27:53;95826.16;;;3.91;69.56
11971;BME280;6045;42.682;23.294;2023-02-14T07:30:20;95838.19;;;3.78;70.71
11971;BME280;6045;42.682;23.294;2023-02-14T07:32:47;95843.59;;;5.00;90.65
11971;BME280;6045;42.682;23.294;2023-02-14T07:35:15;95840.22;;;4.42;72.59
11971;BME280;6045;42.682;23.294;2023-02-14T07:37:42;95831.31;;;4.43;72.75
11971;BME280;6045;42.682;23.294;2023-02-14T07:40:09;95822.81;;;4.23;72.12
11971;BME280;6045;42.682;23.294;2023-02-14T07:42:36;95827.41;;;4.05;72.77
11971;BME280;6045;42.682;23.294;2023-02-14T07:45:03;95838.06;;;3.87;73.68
11971;BME280;6045;42.682;23.294;2023-02-14T07:47:31;95843.69;;;3.92;74.18
11971;BME280;6045;42.682;23.294;2023-02-14T07:49:58;95839.75;;;3.96;74.15
11971;BME280;6045;42.682;23.294;2023-02-14T07:52:26;95844.00;;;3.89;74.17
11971;BME280;6045;42.682;23.294;2023-02-14T07:54:53;95854.41;;;3.83;74.76
11971;BME280;6045;42.682;23.294;2023-02-14T07:57:20;95853.69;;;3.73;75.12
11971;BME280;6045;42.682;23.294;2023-02-14T07:59:46;95855.00;;;3.69;75.65
11971;BME280;6045;42.682;23.294;2023-02-14T08:02:13;95863.75;;;3.69;75.90
11971;BME280;6045;42.682;23.294;2023-02-14T08:04:40;95865.41;;;3.70;75.57
11971;BME280;6045;42.682;23.294;2023-02-14T08:07:06;95860.78;;;3.72;75.69
11971;BME280;6045;42.682;23.294;2023-02-14T08:09:34;95858.50;;;3.77;75.71
11971;BME280;6045;42.682;23.294;2023-02-14T08:12:01;95863.78;;;3.77;75.63
11971;BME280;6045;42.682;23.294;2023-02-14T08:14:45;95871.72;;;3.77;76.00
11971;BME280;6045;42.682;23.294;2023-02-14T08:17:12;95866.78;;;3.82;75.75
11971;BME280;6045;42.682;23.294;2023-02-14T08:19:39;95871.94;;;3.84;75.33
11971;BME280;6045;42.682;23.294;2023-02-14T08:22:06;95870.44;;;3.89;75.38
11971;BME280;6045;42.682;23.294;2023-02-14T08:24:35;95866.16;;;3.88;75.05
11971;BME280;6045;42.682;23.294;2023-02-14T08:27:02;95874.34;;;3.77;74.92
11971;BME280;6045;42.682;23.294;2023-02-14T08:29:28;95880.38;;;3.87;74.64
11971;BME280;6045;42.682;23.294;2023-02-14T08:31:55;95876.47;;;3.99;74.29
11971;BME280;6045;42.682;23.294;2023-02-14T08:34:24;95869.31;;;3.92;74.50
11971;BME280;6045;42.682;23.294;2023-02-14T08:36:51;95876.16;;;4.02;74.43
11971;BME280;6045;42.682;23.294;2023-02-14T08:39:18;95867.56;;;4.08;74.41
11971;BME280;6045;42.682;23.294;2023-02-14T08:41:46;95864.09;;;4.08;74.43
11971;BME280;6045;42.682;23.294;2023-02-14T08:44:12;95871.78;;;3.93;74.57
11971;BME280;6045;42.682;23.294;2023-02-14T08:46:40;95878.75;;;3.94;75.18
11971;BME280;6045;42.682;23.294;2023-02-14T08:49:08;95874.66;;;4.00;75.13
11971;BME280;6045;42.682;23.294;2023-02-14T08:51:35;95878.78;;;4.02;75.00
11971;BME280;6045;42.682;23.294;2023-02-14T08:54:01;95877.28;;;4.00;75.39
11971;BME280;6045;42.682;23.294;2023-02-14T08:56:28;95885.19;;;3.92;75.52
11971;BME280;6045;42.682;23.294;2023-02-14T08:58:56;95887.47;;;3.87;75.84
11971;BME280;6045;42.682;23.294;2023-02-14T09:01:23;95878.03;;;3.84;76.05
11971;BME280;6045;42.682;23.294;2023-02-14T09:03:50;95871.41;;;3.80;76.68
11971;BME280;6045;42.682;23.294;2023-02-14T09:06:16;95879.97;;;3.74;76.76
11971;BME280;6045;42.682;23.294;2023-02-14T09:08:43;95872.19;;;3.73;76.71
11971;BME280;6045;42.682;23.294;2023-02-14T09:11:12;95871.50;;;3.71;77.00
11971;BME280;6045;42.682;23.294;2023-02-14T09:13:40;95870.78;;;3.61;77.25
11971;BME280;6045;42.682;23.294;2023-02-14T09:16:10;95863.88;;;3.60;77.17
11971;BME280;6045;42.682;23.294;2023-02-14T09:18:37;95867.69;;;3.65;77.18
11971;BME280;6045;42.682;23.294;2023-02-14T09:21:06;95844.59;;;3.67;76.90
11971;BME280;6045;42.682;23.294;2023-02-14T09:23:33;95853.00;;;3.63;76.93
11971;BME280;6045;42.682;23.294;2023-02-14T09:26:00;95852.84;;;3.72;76.56
11971;BME280;6045;42.682;23.294;2023-02-14T09:28:28;95855.19;;;3.75;75.97
11971;BME280;6045;42.682;23.294;2023-02-14T09:30:55;95857.81;;;3.75;75.92
11971;BME280;6045;42.682;23.294;2023-02-14T09:33:24;95871.72;;;3.77;75.93
11971;BME280;6045;42.682;23.294;2023-02-14T09:35:52;95871.63;;;3.61;76.16
11971;BME280;6045;42.682;23.294;2023-02-14T09:38:36;95851.50;;;3.60;76.32
11971;BME280;6045;42.682;23.294;2023-02-14T09:41:04;95863.88;;;3.60;76.73
11971;BME280;6045;42.682;23.294;2023-02-14T09:43:36;95867.06;;;3.71;76.11
11971;BME280;6045;42.682;23.294;2023-02-14T09:46:05;95863.13;;;3.75;75.84
11971;BME280;6045;42.682;23.294;2023-02-14T09:48:41;95857.53;;;3.78;75.66
11971;BME280;6045;42.682;23.294;2023-02-14T09:51:12;95846.78;;;3.80;75.79
11971;BME280;6045;42.682;23.294;2023-02-14T09:53:43;95841.22;;;3.91;75.46
11971;BME280;6045;42.682;23.294;2023-02-14T09:56:16;95826.03;;;4.01;74.78
11971;BME280;6045;42.682;23.294;2023-02-14T09:58:49;95848.50;;;3.97;74.61
11971;BME280;6045;42.682;23.294;2023-02-14T10:01:21;95846.88;;;4.04;74.31
11971;BME280;6045;42.682;23.294;2023-02-14T10:04:01;95848.34;;;3.98;74.11
11971;BME280;6045;42.682;23.294;2023-02-14T10:06:39;95839.25;;;3.93;74.40
11971;BME280;6045;42.682;23.294;2023-02-14T10:09:15;95834.16;;;4.07;73.73
11971;BME280;6045;42.682;23.294;2023-02-14T10:11:45;95827.53;;;4.03;73.44
11971;BME280;6045;42.682;23.294;2023-02-14T10:14:15;95828.72;;;4.09;73.43
11971;BME280;6045;42.682;23.294;2023-02-14T10:16:47;95833.69;;;4.12;73.66
11971;BME280;6045;42.682;23.294;2023-02-14T10:19:18;95826.59;;;4.21;78.95
11971;BME280;6045;42.682;23.294;2023-02-14T10:21:50;95838.94;;;4.86;81.51
11971;BME280;6045;42.682;23.294;2023-02-14T10:24:20;95827.50;;;5.26;79.08
11971;BME280;6045;42.682;23.294;2023-02-14T10:26:49;95820.50;;;5.65;79.20
11971;BME280;6045;42.682;23.294;2023-02-14T10:29:18;95824.19;;;5.48;71.20
11971;BME280;6045;42.682;23.294;2023-02-14T10:31:50;95823.03;;;5.34;69.18
11971;BME280;6045;42.682;23.294;2023-02-14T10:34:25;95830.16;;;4.85;70.00
11971;BME280;6045;42.682;23.294;2023-02-14T10:37:03;95819.09;;;4.90;70.35
11971;BME280;6045;42.682;23.294;2023-02-14T10:39:58;95818.84;;;5.56;86.50
11971;BME280;6045;42.682;23.294;2023-02-14T10:42:34;95814.59;;;5.31;72.03
11971;BME280;6045;42.682;23.294;2023-02-14T10:45:11;95821.91;;;5.13;70.77
11971;BME280;6045;42.682;23.294;2023-02-14T10:47:46;95823.22;;;4.93;69.95
11971;BME280;6045;42.682;23.294;2023-02-14T10:50:24;95825.22;;;4.74;70.81
11971;BME280;6045;42.682;23.294;2023-02-14T10:52:59;95828.97;;;4.48;71.41
11971;BME280;6045;42.682;23.294;2023-02-14T10:55:39;95837.03;;;4.22;72.46
11971;BME280;6045;42.682;23.294;2023-02-14T10:58:12;95822.94;;;4.13;73.02
11971;BME280;6045;42.682;23.294;2023-02-14T11:00:48;95808.66;;;3.90;73.88
11971;BME280;6045;42.682;23.294;2023-02-14T11:03:16;95802.72;;;3.96;74.17
11971;BME280;6045;42.682;23.294;2023-02-14T11:05:46;95813.59;;;3.93;73.86
11971;BME280;6045;42.682;23.294;2023-02-14T11:08:18;95810.81;;;3.95;74.29
11971;BME280;6045;42.682;23.294;2023-02-14T11:10:47;95810.16;;;4.01;74.06
11971;BME280;6045;42.682;23.294;2023-02-14T11:13:28;95801.91;;;4.04;73.19
11971;BME280;6045;42.682;23.294;2023-02-14T11:15:58;95802.56;;;3.98;73.19
11971;BME280;6045;42.682;23.294;2023-02-14T11:18:26;95803.56;;;3.97;72.65
11971;BME280;6045;42.682;23.294;2023-02-14T11:21:08;95811.97;;;3.92;72.50
11971;BME280;6045;42.682;23.294;2023-02-14T11:23:38;95802.41;;;3.99;73.03
11971;BME280;6045;42.682;23.294;2023-02-14T11:26:10;95807.22;;;4.04;72.11
11971;BME280;6045;42.682;23.294;2023-02-14T11:28:46;95804.38;;;3.97;71.84
11971;BME280;6045;42.682;23.294;2023-02-14T11:31:23;95796.91;;;3.85;71.68
11971;BME280;6045;42.682;23.294;2023-02-14T11:33:50;95782.22;;;3.90;72.04
11971;BME280;6045;42.682;23.294;2023-02-14T11:36:20;95774.28;;;3.98;71.64
11971;BME280;6045;42.682;23.294;2023-02-14T11:38:55;95782.72;;;3.94;71.10
11971;BME280;6045;42.682;23.294;2023-02-14T11:41:23;95783.53;;;3.94;70.83
11971;BME280;6045;42.682;23.294;2023-02-14T11:43:50;95767.84;;;4.01;70.84
11971;BME280;6045;42.682;23.294;2023-02-14T11:46:25;95780.63;;;4.13;70.58
11971;BME280;6045;42.682;23.294;2023-02-14T11:48:55;95777.19;;;4.21;69.56
11971;BME280;6045;42.682;23.294;2023-02-14T11:51:29;95768.03;;;4.07;68.56
11971;BME280;6045;42.682;23.294;2023-02-14T11:53:57;95767.72;;;4.10;68.66
11971;BME280;6045;42.682;23.294;2023-02-14T11:56:44;95770.00;;;4.05;68.75
11971;BME280;6045;42.682;23.294;2023-02-14T11:59:24;95759.59;;;4.04;68.76
11971;BME280;6045;42.682;23.294;2023-02-14T12:01:53;95757.78;;;4.04;69.43
11971;BME280;6045;42.682;23.294;2023-02-14T12:04:24;95755.16;;;4.12;69.49
11971;BME280;6045;42.682;23.294;2023-02-14T12:06:54;95747.56;;;4.09;68.87
11971;BME280;6045;42.682;23.294;2023-02-14T12:09:26;95751.53;;;4.22;69.38
11971;BME280;6045;42.682;23.294;2023-02-14T12:11:55;95743.78;;;4.28;68.90
11971;BME280;6045;42.682;23.294;2023-02-14T12:14:23;95744.28;;;4.32;69.32
11971;BME280;6045;42.682;23.294;2023-02-14T12:16:55;95744.94;;;4.34;68.80
11971;BME280;6045;42.682;23.294;2023-02-14T12:19:31;95746.59;;;4.35;68.59
11971;BME280;6045;42.682;23.294;2023-02-14T12:22:04;95742.47;;;4.40;69.14
11971;BME280;6045;42.682;23.294;2023-02-14T12:24:35;95749.25;;;4.43;69.24
11971;BME280;6045;42.682;23.294;2023-02-14T12:27:16;95741.31;;;4.43;69.07
11971;BME280;6045;42.682;23.294;2023-02-14T12:29:47;95744.78;;;4.43;68.54
11971;BME280;6045;42.682;23.294;2023-02-14T12:32:20;95721.13;;;4.26;68.90
11971;BME280;6045;42.682;23.294;2023-02-14T12:34:48;95724.91;;;4.31;69.62
11971;BME280;6045;42.682;23.294;2023-02-14T12:37:24;95731.69;;;4.34;69.56
11971;BME280;6045;42.682;23.294;2023-02-14T12:42:57;95738.50;;;4.44;68.82
11971;BME280;6045;42.682;23.294;2023-02-14T12:48:37;95733.53;;;4.41;69.29
11971;BME280;6045;42.682;23.294;2023-02-14T12:51:10;95719.81;;;4.54;68.90
11971;BME280;6045;42.682;23.294;2023-02-14T12:53:52;95721.78;;;4.60;68.61
11971;BME280;6045;42.682;23.294;2023-02-14T12:56:31;95729.25;;;4.56;69.00
11971;BME280;6045;42.682;23.294;2023-02-14T12:59:18;95733.88;;;4.54;68.92
11971;BME280;6045;42.682;23.294;2023-02-14T13:02:11;95726.56;;;4.64;68.87
11971;BME280;6045;42.682;23.294;2023-02-14T13:04:52;95723.13;;;4.64;68.55
11971;BME280;6045;42.682;23.294;2023-02-14T13:07:32;95727.25;;;4.74;69.34
11971;BME280;6045;42.682;23.294;2023-02-14T13:10:13;95724.91;;;4.79;68.20
11971;BME280;6045;42.682;23.294;2023-02-14T13:12:45;95724.41;;;4.76;68.31
11971;BME280;6045;42.682;23.294;2023-02-14T13:15:20;95720.78;;;4.77;68.36
11971;BME280;6045;42.682;23.294;2023-02-14T13:17:56;95723.94;;;4.72;68.77
11971;BME280;6045;42.682;23.294;2023-02-14T13:20:49;95722.28;;;4.79;69.87
11971;BME280;6045;42.682;23.294;2023-02-14T13:23:20;95712.16;;;4.91;69.20
11971;BME280;6045;42.682;23.294;2023-02-14T13:25:56;95706.69;;;4.93;68.85
11971;BME280;6045;42.682;23.294;2023-02-14T13:28:26;95716.13;;;4.95;68.56
11971;BME280;6045;42.682;23.294;2023-02-14T13:30:54;95716.66;;;4.82;68.91
11971;BME280;6045;42.682;23.294;2023-02-14T13:33:26;95707.72;;;4.59;69.87
11971;BME280;6045;42.682;23.294;2023-02-14T13:35:55;95709.88;;;4.56;69.99
11971;BME280;6045;42.682;23.294;2023-02-14T13:38:23;95704.91;;;4.61;70.32
11971;BME280;6045;42.682;23.294;2023-02-14T13:40:53;95703.91;;;4.62;70.12